YM Cultivation — BLHN — position and weather

sailwx.info

Track history (hours):
 
Tides and Currents Weather Stations Pressure Air Temp Water Temp Dewpoint Dewpoint Depression Visibility Wind Speed Wind Dir Waves Ship Positions

YM Cultivation

Last reported at 2018-May-19 06:57 UTC. Time now 2018-May-23 05:29 UTC.
Position N 40°26' W 073°49'.

Length 224 m; draft 7.8 m.

Type: Cargo ship. MMSI: 416370000.

Date/timePositionNaut miles runAvg speedWind from/ knotsBaromVisibWave heightAir tempDewpointWater temp
2018-May-19 06:57N 40°26' W 073°49'613.8
2018-May-19 06:30N 40°29' W 073°55'815.7
2018-May-19 06:00N 40°35' W 074°02'5 9.8
2018-May-19 05:30N 40°39' W 074°07'2 4.1
2018-May-19 04:58N 40°39' W 074°10'1 2.2
2018-May-19 04:28N 40°39' W 074°11'0 0.0
2018-May-19 03:55N 40°39' W 074°11'0 0.0
2018-May-19 03:28N 40°39' W 074°11'0 0.0
2018-May-19 02:58N 40°39' W 074°11'0 0.0
2018-May-19 02:28N 40°39' W 074°11'0 0.0
2018-May-19 01:58N 40°39' W 074°11'0 0.0
2018-May-19 01:28N 40°39' W 074°11'0 0.0
2018-May-19 00:58N 40°39' W 074°11'0 0.0
2018-May-19 00:28N 40°39' W 074°11'0 0.0
2018-May-18 23:58N 40°39' W 074°11'0 0.0
2018-May-18 23:28N 40°39' W 074°11'0 0.0
2018-May-18 22:58N 40°39' W 074°11'0 0.0
2018-May-18 22:28N 40°39' W 074°11'0 0.0
2018-May-18 21:58N 40°39' W 074°11'0 0.0
2018-May-18 21:27N 40°39' W 074°11'0 0.0
2018-May-18 21:00N 40°39' W 074°11'0 0.0
2018-May-18 20:22N 40°39' W 074°11'0 0.0
2018-May-18 20:00N 40°39' W 074°11'0 0.0
2018-May-18 19:27N 40°39' W 074°11'0 0.0
2018-May-18 19:00N 40°39' W 074°11'0 0.0
2018-May-18 18:30N 40°39' W 074°11'0 0.0
2018-May-18 18:00N 40°39' W 074°11'0 0.0
2018-May-18 17:30N 40°39' W 074°11'0 0.0
2018-May-18 17:00N 40°39' W 074°11'0 0.0
2018-May-18 16:27N 40°39' W 074°11'0 0.0
2018-May-18 16:00N 40°39' W 074°11'0 0.0
2018-May-18 15:27N 40°39' W 074°11'0 0.0
2018-May-18 15:00N 40°39' W 074°11'0 0.0
2018-May-18 14:30N 40°39' W 074°11'0 0.0
2018-May-18 14:00N 40°39' W 074°11'0 0.0
2018-May-18 13:27N 40°39' W 074°11'0 0.0
2018-May-18 12:48N 40°39' W 074°11'0 0.0
2018-May-18 12:27N 40°39' W 074°11'0 0.0
2018-May-18 11:57N 40°39' W 074°11'0 0.0
2018-May-18 11:27N 40°39' W 074°11'0 0.0
2018-May-18 11:00N 40°39' W 074°11'0 0.5
2018-May-18 10:30N 40°39' W 074°11'3 6.8
2018-May-18 10:00N 40°39' W 074°07'3 5.7
2018-May-18 09:30N 40°38' W 074°03'3 6.4
2018-May-18 09:00N 40°35' W 074°02'5 9.2
2018-May-18 08:30N 40°31' W 073°59'5 9.3
2018-May-18 08:00N 40°29' W 073°53'4 8.9
2018-May-18 07:30N 40°26' W 073°48'7 6.3
2018-May-18 06:27N 40°20' W 073°46'5 7.8
2018-May-18 05:49N 40°15' W 073°45'410.3
2018-May-18 05:28N 40°11' W 073°45'510.4
2018-May-18 05:00N 40°07' W 073°44'610.6
2018-May-18 04:26N 40°01' W 073°44'510.7
2018-May-18 03:59N 39°56' W 073°44'610.7
2018-May-18 03:26N 39°50' W 073°43'710.7
2018-May-18 02:48N 39°43' W 073°44'2 7.9
2018-May-18 02:30N 39°41' W 073°45'0 0.6
2018-May-18 02:00N 39°41' W 073°45'0 0.7
2018-May-18 01:29N 39°40' W 073°44'0 0.8
2018-May-18 01:00N 39°40' W 073°44'1 0.9
2018-May-18 00:23N 39°40' W 073°44'0 0.6
2018-May-17 23:57N 39°40' W 073°43'0 0.5
2018-May-17 23:30N 39°39' W 073°43'0 0.7
2018-May-17 22:56N 39°39' W 073°43'0 0.6
2018-May-17 22:29N 39°39' W 073°43'0 0.6
2018-May-17 22:00N 39°39' W 073°42'1 2.2
2018-May-17 21:30N 39°38' W 073°44'3 5.6
2018-May-17 21:00N 39°37' W 073°47'3 5.7
2018-May-17 20:30N 39°34' W 073°49'3 5.4
2018-May-17 20:00N 39°32' W 073°51'3 5.3
2018-May-17 19:30N 39°30' W 073°52'3 5.2
2018-May-17 18:59N 39°27' W 073°54'2 5.1
2018-May-17 18:30N 39°25' W 073°56'3 5.3
2018-May-17 17:59N 39°23' W 073°57'4 5.2
2018-May-17 17:09N 39°19' W 074°00'2 5.2
2018-May-17 16:51N 39°18' W 074°01'57 6.1
2018-May-17 07:34N 38°29' W 074°39'3 6.0
2018-May-17 07:04N 38°27' W 074°41'1 5.4
2018-May-17 06:51N 38°26' W 074°43'3 6.3
2018-May-17 06:25N 38°29' W 074°45'4 6.8
2018-May-17 05:53N 38°31' W 074°48'9 6.8
2018-May-17 04:35N 38°39' W 074°54'1 7.0
2018-May-17 04:30N 38°39' W 074°55'4 7.1
2018-May-17 03:56N 38°42' W 074°58'3 6.5
2018-May-17 03:29N 38°45' W 075°00'3 6.3
2018-May-17 03:00N 38°47' W 075°02'5 7.4
2018-May-17 02:21N 38°52' W 075°05'717.3
2018-May-17 01:58N 38°58' W 075°07'817.2
2018-May-17 01:30N 39°05' W 075°11'816.2
2018-May-17 01:01N 39°12' W 075°17'713.1
2018-May-17 00:30N 39°17' W 075°22'816.4
2018-May-17 00:00N 39°23' W 075°29'816.0
2018-May-16 23:30N 39°31' W 075°33'714.0
2018-May-16 23:00N 39°38' W 075°35'713.1
2018-May-16 22:31N 39°43' W 075°30'611.8
2018-May-16 22:00N 39°48' W 075°26'5 9.8
2018-May-16 21:30N 39°51' W 075°21'510.2
2018-May-16 21:01N 39°52' W 075°14'4 8.1
2018-May-16 20:31N 39°53' W 075°09'1 2.8
2018-May-16 20:00N 39°54' W 075°08'0 0.0
2018-May-16 19:30N 39°54' W 075°08'0 0.0
2018-May-16 19:00N 39°54' W 075°08'0 0.0
2018-May-16 18:30N 39°54' W 075°08'0 0.0
2018-May-16 18:00N 39°54' W 075°08'0 0.0
2018-May-16 17:30N 39°54' W 075°08'0 0.0
2018-May-16 17:00N 39°54' W 075°08'0 0.0
2018-May-16 16:30N 39°54' W 075°08'0 0.0
2018-May-16 16:00N 39°54' W 075°08'0 0.0
2018-May-16 15:30N 39°54' W 075°08'0 0.0
2018-May-16 15:00N 39°54' W 075°08'0 0.0
2018-May-16 14:30N 39°54' W 075°08'0 0.0
2018-May-16 14:00N 39°54' W 075°08'0 0.0
2018-May-16 13:30N 39°54' W 075°08'0 0.0
2018-May-16 13:00N 39°54' W 075°08'1 2.5
2018-May-16 12:30N 39°53' W 075°09'4 7.6
2018-May-16 12:01N 39°52' W 075°13'4 8.6
2018-May-16 11:30N 39°51' W 075°19'5 9.6
2018-May-16 11:00N 39°48' W 075°24'5 9.6
2018-May-16 10:30N 39°45' W 075°29'510.0
2018-May-16 10:00N 39°41' W 075°31'611.0
2018-May-16 09:30N 39°35' W 075°34'611.7
2018-May-16 09:00N 39°30' W 075°34'611.6
2018-May-16 08:30N 39°24' W 075°30'612.7
2018-May-16 08:00N 39°20' W 075°25'1012.4
2018-May-16 07:09N 39°11' W 075°17'120 5.5
2018-May-15 09:06N 37°11' W 075°18'1 6.1
2018-May-15 09:00N 37°10' W 075°19'3 6.4
2018-May-15 08:30N 37°08' W 075°22'3 6.3
2018-May-15 08:00N 37°06' W 075°24'3 6.2
2018-May-15 07:30N 37°03' W 075°27'3 6.6
2018-May-15 06:59N 37°01' W 075°29'3 6.9
2018-May-15 06:29N 36°58' W 075°32'3 6.8
2018-May-15 06:00N 36°56' W 075°35'10 6.4
2018-May-15 04:31N 36°50' W 075°44'0 6.1
2018-May-15 04:30N 36°49' W 075°44'16 6.2
2018-May-15 02:01N 36°57' W 076°01'0 6.7
2018-May-15 01:59N 36°57' W 076°01'510.2
2018-May-15 01:30N 36°59' W 076°07'1111.7
2018-May-15 00:36N 36°57' W 076°20'1 9.6
2018-May-15 00:28N 36°55' W 076°20'1 0.4
2018-May-14 22:14N 36°55' W 076°20'0 0.0
2018-May-14 21:56N 36°55' W 076°20'0 0.0
2018-May-14 21:23N 36°55' W 076°20'0 0.0
2018-May-14 20:59N 36°55' W 076°20'0 0.0
2018-May-14 20:29N 36°55' W 076°20'0 0.0
2018-May-14 19:59N 36°55' W 076°20'0 0.0
2018-May-14 19:29N 36°55' W 076°20'0 0.0
2018-May-14 18:59N 36°55' W 076°20'0 0.0
2018-May-14 18:29N 36°55' W 076°20'0 0.0
2018-May-14 17:59N 36°55' W 076°20'0 0.0
2018-May-14 17:29N 36°55' W 076°20'0 0.0
2018-May-14 16:59N 36°55' W 076°20'0 0.0
2018-May-14 16:26N 36°55' W 076°20'0 0.0
2018-May-14 15:53N 36°55' W 076°20'0 0.0
2018-May-14 15:23N 36°55' W 076°20'0 0.0
2018-May-14 14:56N 36°55' W 076°20'0 0.0
2018-May-14 14:29N 36°55' W 076°20'0 0.0
2018-May-14 13:56N 36°55' W 076°20'0 0.0
2018-May-14 13:29N 36°55' W 076°20'0 0.0
2018-May-14 12:59N 36°55' W 076°20'0 0.0
2018-May-14 12:23N 36°55' W 076°20'0 0.0
2018-May-14 11:53N 36°55' W 076°20'0 0.0
2018-May-14 11:20N 36°55' W 076°20'0 0.0
2018-May-14 10:50N 36°55' W 076°20'0 0.0
2018-May-14 10:29N 36°55' W 076°20'0 0.0
2018-May-14 09:59N 36°55' W 076°20'0 0.0
2018-May-14 09:29N 36°55' W 076°20'0 0.0
2018-May-14 08:59N 36°55' W 076°20'0 0.0
2018-May-14 08:23N 36°55' W 076°20'0 0.0
2018-May-14 07:59N 36°55' W 076°20'0 0.0
2018-May-14 07:29N 36°55' W 076°20'0 0.0
2018-May-14 06:59N 36°55' W 076°20'0 0.0
2018-May-14 06:29N 36°55' W 076°20'0 0.0
2018-May-14 05:59N 36°55' W 076°20'0 0.0
2018-May-14 05:29N 36°55' W 076°20'0 0.0
2018-May-14 04:59N 36°55' W 076°20'0 0.0
2018-May-14 04:20N 36°55' W 076°20'0 0.0
2018-May-14 03:59N 36°55' W 076°20'0 0.0
2018-May-14 03:29N 36°55' W 076°20'0 0.0
2018-May-14 02:59N 36°55' W 076°20'0 0.0
2018-May-14 02:29N 36°55' W 076°20'0 0.0
2018-May-14 01:59N 36°55' W 076°20'0 0.0
2018-May-14 01:29N 36°55' W 076°20'0 0.0
2018-May-14 00:59N 36°55' W 076°20'0 0.0
2018-May-14 00:23N 36°55' W 076°20'0 0.0
2018-May-13 23:56N 36°55' W 076°20'0 0.0
2018-May-13 23:26N 36°55' W 076°20'0 0.0
2018-May-13 22:59N 36°55' W 076°20'0 0.0
2018-May-13 22:29N 36°55' W 076°20'0 0.0
2018-May-13 21:59N 36°55' W 076°20'1 2.1
2018-May-13 21:30N 36°56' W 076°20'3 5.6
2018-May-13 20:58N 36°59' W 076°20'610.4
2018-May-13 20:24N 37°00' W 076°13'615.6
2018-May-13 20:01N 36°58' W 076°06'713.6
2018-May-13 19:31N 36°56' W 075°57'3 5.6
2018-May-13 19:00N 36°55' W 075°54'4 7.1
2018-May-13 18:29N 36°52' W 075°51'10115.2
2018-May-13 11:49N 36°55' W 073°45'  
Track history (hours):
 
Tides and Currents Weather Stations Pressure Air Temp Water Temp Dewpoint Dewpoint Depression Visibility Wind Speed Wind Dir Waves Ship Positions

YM Cultivation

Last reported at 2018-May-19 06:57 UTC. Time now 2018-May-23 05:29 UTC.
Position N 40°26' W 073°49'.

Length 224 m; draft 7.8 m.

Type: Cargo ship. MMSI: 416370000.

Date/timePositionNaut miles runAvg speedWind from/ knotsBaromVisibWave heightAir tempDewpointWater temp
2018-May-19 06:57N 40°26' W 073°49'613.8
2018-May-19 06:30N 40°29' W 073°55'815.7
2018-May-19 06:00N 40°35' W 074°02'5 9.8
2018-May-19 05:30N 40°39' W 074°07'2 4.1
2018-May-19 04:58N 40°39' W 074°10'1 2.2
2018-May-19 04:28N 40°39' W 074°11'0 0.0
2018-May-19 03:55N 40°39' W 074°11'0 0.0
2018-May-19 03:28N 40°39' W 074°11'0 0.0
2018-May-19 02:58N 40°39' W 074°11'0 0.0
2018-May-19 02:28N 40°39' W 074°11'0 0.0
2018-May-19 01:58N 40°39' W 074°11'0 0.0
2018-May-19 01:28N 40°39' W 074°11'0 0.0
2018-May-19 00:58N 40°39' W 074°11'0 0.0
2018-May-19 00:28N 40°39' W 074°11'0 0.0
2018-May-18 23:58N 40°39' W 074°11'0 0.0
2018-May-18 23:28N 40°39' W 074°11'0 0.0
2018-May-18 22:58N 40°39' W 074°11'0 0.0
2018-May-18 22:28N 40°39' W 074°11'0 0.0
2018-May-18 21:58N 40°39' W 074°11'0 0.0
2018-May-18 21:27N 40°39' W 074°11'0 0.0
2018-May-18 21:00N 40°39' W 074°11'0 0.0
2018-May-18 20:22N 40°39' W 074°11'0 0.0
2018-May-18 20:00N 40°39' W 074°11'0 0.0
2018-May-18 19:27N 40°39' W 074°11'0 0.0
2018-May-18 19:00N 40°39' W 074°11'0 0.0
2018-May-18 18:30N 40°39' W 074°11'0 0.0
2018-May-18 18:00N 40°39' W 074°11'0 0.0
2018-May-18 17:30N 40°39' W 074°11'0 0.0
2018-May-18 17:00N 40°39' W 074°11'0 0.0
2018-May-18 16:27N 40°39' W 074°11'0 0.0
2018-May-18 16:00N 40°39' W 074°11'0 0.0
2018-May-18 15:27N 40°39' W 074°11'0 0.0
2018-May-18 15:00N 40°39' W 074°11'0 0.0
2018-May-18 14:30N 40°39' W 074°11'0 0.0
2018-May-18 14:00N 40°39' W 074°11'0 0.0
2018-May-18 13:27N 40°39' W 074°11'0 0.0
2018-May-18 12:48N 40°39' W 074°11'0 0.0
2018-May-18 12:27N 40°39' W 074°11'0 0.0
2018-May-18 11:57N 40°39' W 074°11'0 0.0
2018-May-18 11:27N 40°39' W 074°11'0 0.0
2018-May-18 11:00N 40°39' W 074°11'0 0.5
2018-May-18 10:30N 40°39' W 074°11'3 6.8
2018-May-18 10:00N 40°39' W 074°07'3 5.7
2018-May-18 09:30N 40°38' W 074°03'3 6.4
2018-May-18 09:00N 40°35' W 074°02'5 9.2
2018-May-18 08:30N 40°31' W 073°59'5 9.3
2018-May-18 08:00N 40°29' W 073°53'4 8.9
2018-May-18 07:30N 40°26' W 073°48'7 6.3
2018-May-18 06:27N 40°20' W 073°46'5 7.8
2018-May-18 05:49N 40°15' W 073°45'410.3
2018-May-18 05:28N 40°11' W 073°45'510.4
2018-May-18 05:00N 40°07' W 073°44'610.6
2018-May-18 04:26N 40°01' W 073°44'510.7
2018-May-18 03:59N 39°56' W 073°44'610.7
2018-May-18 03:26N 39°50' W 073°43'710.7
2018-May-18 02:48N 39°43' W 073°44'2 7.9
2018-May-18 02:30N 39°41' W 073°45'0 0.6
2018-May-18 02:00N 39°41' W 073°45'0 0.7
2018-May-18 01:29N 39°40' W 073°44'0 0.8
2018-May-18 01:00N 39°40' W 073°44'1 0.9
2018-May-18 00:23N 39°40' W 073°44'0 0.6
2018-May-17 23:57N 39°40' W 073°43'0 0.5
2018-May-17 23:30N 39°39' W 073°43'0 0.7
2018-May-17 22:56N 39°39' W 073°43'0 0.6
2018-May-17 22:29N 39°39' W 073°43'0 0.6
2018-May-17 22:00N 39°39' W 073°42'1 2.2
2018-May-17 21:30N 39°38' W 073°44'3 5.6
2018-May-17 21:00N 39°37' W 073°47'3 5.7
2018-May-17 20:30N 39°34' W 073°49'3 5.4
2018-May-17 20:00N 39°32' W 073°51'3 5.3
2018-May-17 19:30N 39°30' W 073°52'3 5.2
2018-May-17 18:59N 39°27' W 073°54'2 5.1
2018-May-17 18:30N 39°25' W 073°56'3 5.3
2018-May-17 17:59N 39°23' W 073°57'4 5.2
2018-May-17 17:09N 39°19' W 074°00'2 5.2
2018-May-17 16:51N 39°18' W 074°01'57 6.1
2018-May-17 07:34N 38°29' W 074°39'3 6.0
2018-May-17 07:04N 38°27' W 074°41'1 5.4
2018-May-17 06:51N 38°26' W 074°43'3 6.3
2018-May-17 06:25N 38°29' W 074°45'4 6.8
2018-May-17 05:53N 38°31' W 074°48'9 6.8
2018-May-17 04:35N 38°39' W 074°54'1 7.0
2018-May-17 04:30N 38°39' W 074°55'4 7.1
2018-May-17 03:56N 38°42' W 074°58'3 6.5
2018-May-17 03:29N 38°45' W 075°00'3 6.3
2018-May-17 03:00N 38°47' W 075°02'5 7.4
2018-May-17 02:21N 38°52' W 075°05'717.3
2018-May-17 01:58N 38°58' W 075°07'817.2
2018-May-17 01:30N 39°05' W 075°11'816.2
2018-May-17 01:01N 39°12' W 075°17'713.1
2018-May-17 00:30N 39°17' W 075°22'816.4
2018-May-17 00:00N 39°23' W 075°29'816.0
2018-May-16 23:30N 39°31' W 075°33'714.0
2018-May-16 23:00N 39°38' W 075°35'713.1
2018-May-16 22:31N 39°43' W 075°30'611.8
2018-May-16 22:00N 39°48' W 075°26'5 9.8
2018-May-16 21:30N 39°51' W 075°21'510.2
2018-May-16 21:01N 39°52' W 075°14'4 8.1
2018-May-16 20:31N 39°53' W 075°09'1 2.8
2018-May-16 20:00N 39°54' W 075°08'0 0.0
2018-May-16 19:30N 39°54' W 075°08'0 0.0
2018-May-16 19:00N 39°54' W 075°08'0 0.0
2018-May-16 18:30N 39°54' W 075°08'0 0.0
2018-May-16 18:00N 39°54' W 075°08'0 0.0
2018-May-16 17:30N 39°54' W 075°08'0 0.0
2018-May-16 17:00N 39°54' W 075°08'0 0.0
2018-May-16 16:30N 39°54' W 075°08'0 0.0
2018-May-16 16:00N 39°54' W 075°08'0 0.0
2018-May-16 15:30N 39°54' W 075°08'0 0.0
2018-May-16 15:00N 39°54' W 075°08'0 0.0
2018-May-16 14:30N 39°54' W 075°08'0 0.0
2018-May-16 14:00N 39°54' W 075°08'0 0.0
2018-May-16 13:30N 39°54' W 075°08'0 0.0
2018-May-16 13:00N 39°54' W 075°08'1 2.5
2018-May-16 12:30N 39°53' W 075°09'4 7.6
2018-May-16 12:01N 39°52' W 075°13'4 8.6
2018-May-16 11:30N 39°51' W 075°19'5 9.6
2018-May-16 11:00N 39°48' W 075°24'5 9.6
2018-May-16 10:30N 39°45' W 075°29'510.0
2018-May-16 10:00N 39°41' W 075°31'611.0
2018-May-16 09:30N 39°35' W 075°34'611.7
2018-May-16 09:00N 39°30' W 075°34'611.6
2018-May-16 08:30N 39°24' W 075°30'612.7
2018-May-16 08:00N 39°20' W 075°25'1012.4
2018-May-16 07:09N 39°11' W 075°17'120 5.5
2018-May-15 09:06N 37°11' W 075°18'1 6.1
2018-May-15 09:00N 37°10' W 075°19'3 6.4
2018-May-15 08:30N 37°08' W 075°22'3 6.3
2018-May-15 08:00N 37°06' W 075°24'3 6.2
2018-May-15 07:30N 37°03' W 075°27'3 6.6
2018-May-15 06:59N 37°01' W 075°29'3 6.9
2018-May-15 06:29N 36°58' W 075°32'3 6.8
2018-May-15 06:00N 36°56' W 075°35'10 6.4
2018-May-15 04:31N 36°50' W 075°44'0 6.1
2018-May-15 04:30N 36°49' W 075°44'16 6.2
2018-May-15 02:01N 36°57' W 076°01'0 6.7
2018-May-15 01:59N 36°57' W 076°01'510.2
2018-May-15 01:30N 36°59' W 076°07'1111.7
2018-May-15 00:36N 36°57' W 076°20'1 9.6
2018-May-15 00:28N 36°55' W 076°20'1 0.4
2018-May-14 22:14N 36°55' W 076°20'0 0.0
2018-May-14 21:56N 36°55' W 076°20'0 0.0
2018-May-14 21:23N 36°55' W 076°20'0 0.0
2018-May-14 20:59N 36°55' W 076°20'0 0.0
2018-May-14 20:29N 36°55' W 076°20'0 0.0
2018-May-14 19:59N 36°55' W 076°20'0 0.0
2018-May-14 19:29N 36°55' W 076°20'0 0.0
2018-May-14 18:59N 36°55' W 076°20'0 0.0
2018-May-14 18:29N 36°55' W 076°20'0 0.0
2018-May-14 17:59N 36°55' W 076°20'0 0.0
2018-May-14 17:29N 36°55' W 076°20'0 0.0
2018-May-14 16:59N 36°55' W 076°20'0 0.0
2018-May-14 16:26N 36°55' W 076°20'0 0.0
2018-May-14 15:53N 36°55' W 076°20'0 0.0
2018-May-14 15:23N 36°55' W 076°20'0 0.0
2018-May-14 14:56N 36°55' W 076°20'0 0.0
2018-May-14 14:29N 36°55' W 076°20'0 0.0
2018-May-14 13:56N 36°55' W 076°20'0 0.0
2018-May-14 13:29N 36°55' W 076°20'0 0.0
2018-May-14 12:59N 36°55' W 076°20'0 0.0
2018-May-14 12:23N 36°55' W 076°20'0 0.0
2018-May-14 11:53N 36°55' W 076°20'0 0.0
2018-May-14 11:20N 36°55' W 076°20'0 0.0
2018-May-14 10:50N 36°55' W 076°20'0 0.0
2018-May-14 10:29N 36°55' W 076°20'0 0.0
2018-May-14 09:59N 36°55' W 076°20'0 0.0
2018-May-14 09:29N 36°55' W 076°20'0 0.0
2018-May-14 08:59N 36°55' W 076°20'0 0.0
2018-May-14 08:23N 36°55' W 076°20'0 0.0
2018-May-14 07:59N 36°55' W 076°20'0 0.0
2018-May-14 07:29N 36°55' W 076°20'0 0.0
2018-May-14 06:59N 36°55' W 076°20'0 0.0
2018-May-14 06:29N 36°55' W 076°20'0 0.0
2018-May-14 05:59N 36°55' W 076°20'0 0.0
2018-May-14 05:29N 36°55' W 076°20'0 0.0
2018-May-14 04:59N 36°55' W 076°20'0 0.0
2018-May-14 04:20N 36°55' W 076°20'0 0.0
2018-May-14 03:59N 36°55' W 076°20'0 0.0
2018-May-14 03:29N 36°55' W 076°20'0 0.0
2018-May-14 02:59N 36°55' W 076°20'0 0.0
2018-May-14 02:29N 36°55' W 076°20'0 0.0
2018-May-14 01:59N 36°55' W 076°20'0 0.0
2018-May-14 01:29N 36°55' W 076°20'0 0.0
2018-May-14 00:59N 36°55' W 076°20'0 0.0
2018-May-14 00:23N 36°55' W 076°20'0 0.0
2018-May-13 23:56N 36°55' W 076°20'0 0.0
2018-May-13 23:26N 36°55' W 076°20'0 0.0
2018-May-13 22:59N 36°55' W 076°20'0 0.0
2018-May-13 22:29N 36°55' W 076°20'0 0.0
2018-May-13 21:59N 36°55' W 076°20'1 2.1
2018-May-13 21:30N 36°56' W 076°20'3 5.6
2018-May-13 20:58N 36°59' W 076°20'610.4
2018-May-13 20:24N 37°00' W 076°13'615.6
2018-May-13 20:01N 36°58' W 076°06'713.6
2018-May-13 19:31N 36°56' W 075°57'3 5.6
2018-May-13 19:00N 36°55' W 075°54'4 7.1
2018-May-13 18:29N 36°52' W 075°51'10115.2
2018-May-13 11:49N 36°55' W 073°45'  

Dump ship's entire track history